Clarksdale, Mississippi
Current Conditions -  °F | °C
As of 12:35 AM on Thursday 29 Jan 2015 (Local Time) from KCKM Reporting Station
Few Clouds Few Clouds  
Wind Chill: 54°   Ceiling: Unl
Heat Index: 54°   Visibility: 10mi
Dew Point: 39°   Wind: 14mph
Humidity: 58%   Direction: 170°S
Pressure: 30.08"   Gusts: NA
Location:  34.19°N, 90.56°W
Report Text: KCKM 290635Z AUTO 17012KT 10SM FEW030 12/04 A3008 RMK AO1
Loading
Personal Weather Stations






























Interactive Weather Map New forecast layout! Learn more

10-Day Weather Forecast

Advertisements
Track Severe Weather on mobile